createdAt,value
2022-09-15T00:03:01.263Z,10.2
2022-09-15T00:08:01.401Z,10.7
2022-09-15T00:13:01.674Z,10.6
2022-09-15T00:28:01.512Z,9.6
2022-09-15T00:33:01.558Z,9.0
2022-09-15T00:38:01.533Z,9.5
2022-09-15T00:43:01.722Z,10.0
2022-09-15T00:48:01.547Z,9.3
2022-09-15T00:53:01.587Z,9.9
2022-09-15T00:58:01.567Z,10.5
2022-09-15T01:08:01.494Z,10.6
2022-09-15T01:13:01.500Z,11.6
2022-09-15T01:18:01.373Z,12.2
2022-09-15T01:23:01.387Z,12.0
2022-09-15T01:33:01.571Z,11.6
2022-09-15T01:38:01.601Z,12.1
2022-09-15T01:43:01.532Z,11.7
2022-09-15T01:48:01.541Z,13.1
2022-09-15T01:53:01.457Z,14.0
2022-09-15T01:58:01.600Z,15.0
2022-09-15T02:03:01.555Z,14.4
2022-09-15T02:08:01.519Z,15.4
2022-09-15T02:13:01.541Z,14.0
2022-09-15T02:18:01.624Z,13.2
2022-09-15T02:23:01.532Z,13.1
2022-09-15T02:28:01.518Z,13.5
2022-09-15T02:33:01.545Z,12.1
2022-09-15T02:38:01.517Z,13.0
2022-09-15T02:43:01.536Z,12.8
2022-09-15T02:48:01.537Z,11.9
2022-09-15T02:53:01.538Z,11.5
2022-09-15T02:58:01.720Z,13.1
2022-09-15T03:03:01.500Z,12.8
2022-09-15T03:08:01.511Z,13.1
2022-09-15T03:13:01.595Z,13.8
2022-09-15T03:18:02.085Z,13.2
2022-09-15T03:23:01.538Z,11.7
2022-09-15T03:28:01.548Z,12.0
2022-09-15T03:33:01.233Z,11.8
2022-09-15T03:38:01.505Z,12.0
2022-09-15T03:48:01.506Z,12.6
2022-09-15T03:53:01.612Z,11.6
2022-09-15T03:58:01.507Z,11.3
2022-09-15T04:03:01.507Z,9.9
2022-09-15T04:08:01.406Z,10.0
2022-09-15T04:13:01.547Z,9.5
2022-09-15T04:18:01.408Z,9.8
2022-09-15T04:23:01.509Z,10.7
2022-09-15T04:28:01.512Z,11.2
2022-09-15T04:33:01.551Z,12.1
2022-09-15T04:38:01.549Z,11.7
2022-09-15T04:43:01.514Z,10.9
2022-09-15T04:48:01.517Z,10.2
2022-09-15T04:53:01.667Z,10.7
2022-09-15T04:58:01.499Z,11.0
2022-09-15T05:03:01.551Z,12.9
2022-09-15T05:08:02.401Z,14.1
2022-09-15T05:13:01.538Z,13.6
2022-09-15T05:18:01.984Z,13.4
2022-09-15T05:23:01.623Z,13.5
2022-09-15T05:28:01.512Z,13.7
2022-09-15T05:33:01.439Z,13.1
2022-09-15T05:38:01.543Z,13.8
2022-09-15T05:43:01.510Z,14.3
2022-09-15T05:48:01.520Z,13.8
2022-09-15T05:53:01.547Z,12.1
2022-09-15T05:58:01.505Z,13.0
2022-09-15T06:03:01.583Z,14.3
2022-09-15T06:08:01.525Z,14.2
2022-09-15T06:13:01.645Z,15.4
2022-09-15T06:18:01.936Z,16.4
2022-09-15T06:23:01.514Z,16.0
2022-09-15T06:28:01.536Z,15.5
2022-09-15T06:33:01.600Z,15.7
2022-09-15T06:39:01.529Z,15.2
2022-09-15T06:44:01.529Z,15.0
2022-09-15T06:49:02.009Z,15.5
2022-09-15T06:54:02.357Z,14.9
2022-09-15T06:59:01.451Z,14.2
2022-09-15T07:04:01.509Z,13.6
2022-09-15T07:09:01.587Z,13.2
2022-09-15T07:14:02.550Z,11.7
2022-09-15T07:19:01.540Z,11.2
2022-09-15T07:24:06.378Z,11.0
2022-09-15T07:29:01.434Z,10.0
2022-09-15T07:34:01.519Z,9.6
2022-09-15T07:39:01.513Z,9.7
2022-09-15T07:44:01.541Z,9.6
2022-09-15T07:49:01.545Z,9.1
2022-09-15T07:54:01.549Z,8.7
2022-09-15T07:59:01.518Z,8.8
2022-09-15T08:04:01.615Z,10.0
2022-09-15T08:09:01.866Z,10.4
2022-09-15T08:14:01.514Z,11.9
2022-09-15T08:19:01.513Z,13.5
2022-09-15T08:24:01.974Z,13.2
2022-09-15T08:29:01.546Z,12.3
2022-09-15T08:34:01.535Z,11.2
2022-09-15T08:39:01.557Z,10.5
2022-09-15T08:44:01.515Z,9.8
2022-09-15T08:49:03.044Z,9.1
2022-09-15T08:54:01.507Z,9.2
2022-09-15T08:59:01.516Z,9.0
2022-09-15T09:04:01.557Z,8.2
2022-09-15T09:09:01.527Z,7.6
2022-09-15T09:14:01.528Z,7.5
2022-09-15T09:19:01.284Z,7.2
2022-09-15T09:24:01.422Z,7.5
2022-09-15T09:29:01.326Z,7.3
2022-09-15T09:34:01.190Z,7.6
2022-09-15T09:39:01.241Z,7.5
2022-09-15T09:44:01.223Z,7.3
2022-09-15T09:49:01.518Z,6.2
2022-09-15T09:54:01.159Z,5.5
2022-09-15T09:59:01.565Z,4.2
2022-09-15T10:04:01.118Z,3.5
2022-09-15T10:09:01.227Z,2.7
2022-09-15T10:14:01.806Z,2.8
2022-09-15T10:19:01.934Z,3.2
2022-09-15T10:24:01.552Z,3.6
2022-09-15T10:29:01.766Z,3.9
2022-09-15T10:34:01.213Z,4.4
2022-09-15T10:39:14.970Z,5.1
2022-09-15T10:44:01.144Z,4.7
2022-09-15T10:49:13.183Z,4.5
2022-09-15T10:54:01.354Z,5.1
2022-09-15T10:59:01.432Z,5.6
2022-09-15T11:04:01.423Z,5.4
2022-09-15T11:09:01.286Z,6.4
2022-09-15T11:14:17.254Z,7.0
2022-09-15T11:19:01.435Z,6.9
2022-09-15T11:24:16.875Z,7.2
2022-09-15T11:29:01.541Z,7.6
2022-09-15T11:34:01.659Z,7.1
2022-09-15T11:39:01.539Z,6.8
2022-09-15T11:44:01.585Z,6.5
2022-09-15T11:54:01.560Z,6.3
2022-09-15T12:04:00.959Z,6.8
2022-09-15T12:09:01.550Z,7.2
2022-09-15T12:14:01.591Z,7.6
2022-09-15T12:19:01.559Z,8.1
2022-09-15T12:24:17.259Z,8.6
2022-09-15T12:29:01.378Z,8.7
2022-09-15T12:34:17.234Z,8.9
2022-09-15T12:39:04.088Z,8.4
2022-09-15T12:44:01.562Z,8.2
2022-09-15T12:49:02.363Z,8.4
2022-09-15T12:54:01.548Z,8.6
2022-09-15T12:59:04.518Z,9.7
2022-09-15T13:04:01.572Z,9.6
2022-09-15T13:09:01.564Z,10.2
2022-09-15T13:14:01.606Z,10.4
2022-09-15T13:24:04.255Z,9.6
2022-09-15T13:29:03.488Z,10.2
2022-09-15T13:55:17.646Z,8.0
2022-09-15T14:00:02.804Z,6.8
2022-09-15T14:05:01.626Z,7.1
2022-09-15T14:10:01.555Z,7.0
2022-09-15T14:16:01.622Z,6.7
2022-09-15T14:21:01.630Z,6.1
2022-09-15T14:26:01.404Z,5.9
2022-09-15T14:31:01.419Z,5.6
2022-09-15T14:41:01.546Z,5.9
2022-09-15T15:05:07.507Z,4.0
2022-09-15T15:15:02.189Z,4.3
2022-09-15T15:20:13.391Z,4.1
2022-09-15T15:25:01.594Z,4.0
2022-09-15T15:30:17.162Z,4.0
2022-09-15T15:40:01.648Z,3.6
2022-09-15T15:45:17.333Z,3.2
2022-09-15T15:55:01.515Z,3.1
2022-09-15T16:00:03.296Z,2.9
2022-09-15T16:05:01.489Z,2.8
2022-09-15T16:15:08.941Z,2.8
2022-09-15T16:20:01.497Z,2.5
2022-09-15T16:25:01.504Z,2.3
2022-09-15T16:30:02.452Z,2.3
2022-09-15T16:35:01.549Z,2.7
2022-09-15T16:40:01.617Z,2.8
2022-09-15T16:45:02.274Z,2.8
2022-09-15T16:50:01.393Z,3.0
2022-09-15T17:00:03.124Z,3.0
2022-09-15T17:05:01.446Z,2.7
2022-09-15T17:15:09.609Z,2.6
2022-09-15T17:20:01.462Z,3.2
2022-09-15T17:25:08.575Z,2.6
2022-09-15T17:30:01.980Z,2.9
2022-09-15T17:35:01.530Z,3.2
2022-09-15T17:40:01.587Z,3.4
2022-09-15T17:45:02.052Z,3.3
2022-09-15T17:50:01.532Z,4.4
2022-09-15T17:55:01.626Z,4.3
2022-09-15T18:00:02.641Z,4.7
2022-09-15T18:05:01.533Z,5.4
2022-09-15T18:10:01.537Z,5.6
2022-09-15T18:15:02.829Z,5.0
2022-09-15T18:20:01.519Z,5.4
2022-09-15T18:25:02.207Z,5.1
2022-09-15T18:30:02.079Z,4.7
2022-09-15T18:35:01.543Z,4.6
2022-09-15T18:40:01.598Z,5.2
2022-09-15T18:45:02.582Z,5.0
2022-09-15T18:50:01.558Z,5.6
2022-09-15T18:55:01.542Z,5.4
2022-09-15T19:00:04.004Z,5.2
2022-09-15T19:05:01.517Z,4.4
2022-09-15T19:10:01.517Z,4.0
2022-09-15T19:15:02.834Z,2.8
2022-09-15T19:20:01.515Z,2.4
2022-09-15T19:25:01.553Z,2.0
2022-09-15T19:30:02.173Z,2.0
2022-09-15T19:35:01.542Z,2.2
2022-09-15T19:40:01.570Z,2.4
2022-09-15T19:45:02.390Z,2.4
2022-09-15T19:50:01.504Z,2.6
2022-09-15T19:55:01.570Z,2.8
2022-09-15T20:00:03.219Z,3.0
2022-09-15T20:05:01.554Z,3.1
2022-09-15T20:10:01.504Z,3.0
2022-09-15T20:15:01.949Z,2.6
2022-09-15T20:20:01.552Z,2.3
2022-09-15T20:25:01.507Z,1.9
2022-09-15T20:30:02.630Z,2.2
2022-09-15T20:35:02.122Z,2.0
2022-09-15T20:45:03.128Z,1.8
2022-09-15T20:50:01.507Z,1.6
2022-09-15T20:55:01.534Z,1.3
2022-09-15T21:00:02.292Z,1.3
2022-09-15T21:05:01.544Z,1.2
2022-09-15T21:10:01.575Z,1.3
2022-09-15T21:15:02.098Z,1.2
2022-09-15T21:20:01.511Z,1.0
2022-09-15T21:25:01.509Z,0.8
2022-09-15T21:30:02.268Z,1.8
2022-09-15T21:35:01.534Z,2.0
2022-09-15T21:45:01.919Z,2.2
2022-09-15T21:50:01.618Z,2.7
2022-09-15T21:55:01.532Z,1.5
2022-09-15T22:00:02.947Z,1.6
2022-09-15T22:05:01.541Z,2.0
2022-09-15T22:15:02.429Z,2.3
2022-09-15T22:20:01.529Z,2.9
2022-09-15T22:25:01.510Z,3.0
2022-09-15T22:30:02.434Z,2.8
2022-09-15T22:35:01.596Z,3.0
2022-09-15T22:45:01.970Z,2.9
2022-09-15T22:50:01.555Z,2.7
2022-09-15T23:00:02.322Z,2.3
2022-09-15T23:05:01.422Z,1.8
2022-09-15T23:10:01.508Z,1.6
2022-09-15T23:15:02.027Z,1.4
2022-09-15T23:20:01.538Z,1.2
2022-09-15T23:25:01.569Z,1.4
2022-09-15T23:30:02.366Z,1.4
2022-09-15T23:40:01.583Z,1.2
2022-09-15T23:45:02.388Z,1.2
2022-09-15T23:50:01.506Z,1.1
2022-09-15T23:55:01.521Z,1.0
